createdAt,value
2022-10-09T00:04:20.881Z,33.90
2022-10-09T00:09:23.824Z,34.95
2022-10-09T00:14:26.698Z,34.40
2022-10-09T00:19:30.951Z,34.28
2022-10-09T00:24:33.878Z,34.50
2022-10-09T00:29:36.885Z,34.20
2022-10-09T00:34:41.143Z,34.22
2022-10-09T00:39:44.132Z,34.03
2022-10-09T00:44:54.342Z,33.95
2022-10-09T00:50:03.493Z,34.45
2022-10-09T00:55:09.107Z,34.10
2022-10-09T01:00:14.051Z,34.15
2022-10-09T01:05:18.489Z,34.20
2022-10-09T01:10:29.845Z,35.20
2022-10-09T01:15:38.263Z,35.28
2022-10-09T01:20:50.074Z,35.13
2022-10-09T01:26:05.291Z,34.25
2022-10-09T01:31:12.861Z,34.90
2022-10-09T01:36:17.059Z,34.58
2022-10-09T01:41:21.104Z,34.22
2022-10-09T01:46:29.214Z,35.17
2022-10-09T01:51:38.262Z,34.65
2022-10-09T01:56:41.901Z,34.85
2022-10-09T02:01:47.835Z,34.97
2022-10-09T02:06:51.032Z,34.83
2022-10-09T02:11:58.050Z,35.50
2022-10-09T02:17:05.643Z,34.97
2022-10-09T02:22:14.498Z,35.78
2022-10-09T02:27:20.007Z,38.50
2022-10-09T02:32:24.518Z,37.85
2022-10-09T02:37:27.593Z,37.63
2022-10-09T02:42:30.471Z,37.78
2022-10-09T02:47:34.758Z,36.30
2022-10-09T02:52:37.724Z,35.67
2022-10-09T02:57:40.668Z,35.38
2022-10-09T03:02:45.010Z,35.38
2022-10-09T03:07:51.500Z,34.83
2022-10-09T03:12:54.498Z,34.90
2022-10-09T03:17:58.734Z,35.33
2022-10-09T03:23:01.682Z,34.67
2022-10-09T03:28:04.718Z,35.38
2022-10-09T03:33:08.941Z,34.85
2022-10-09T03:38:11.806Z,34.67
2022-10-09T03:43:14.683Z,34.35
2022-10-09T03:48:18.903Z,34.97
2022-10-09T03:53:21.770Z,34.17
2022-10-09T03:58:25.019Z,34.53
2022-10-09T04:03:29.362Z,33.97
2022-10-09T04:08:32.231Z,34.17
2022-10-09T04:13:35.107Z,34.28
2022-10-09T04:18:40.427Z,34.30
2022-10-09T04:23:43.569Z,34.65
2022-10-09T04:28:46.493Z,34.92
2022-10-09T04:33:50.759Z,34.58
2022-10-09T04:38:53.661Z,34.60
2022-10-09T04:43:57.044Z,35.70
2022-10-09T04:49:01.428Z,35.60
2022-10-09T04:54:04.357Z,35.20
2022-10-09T04:59:13.632Z,34.78
2022-10-09T05:04:17.897Z,36.75
2022-10-09T05:09:20.843Z,37.20
2022-10-09T05:14:23.846Z,36.25
2022-10-09T05:19:28.145Z,35.03
2022-10-09T05:24:31.049Z,35.10
2022-10-09T05:29:34.447Z,35.92
2022-10-09T05:34:38.732Z,35.80
2022-10-09T05:39:41.641Z,34.85
2022-10-09T05:44:44.505Z,35.10
2022-10-09T05:49:48.743Z,34.78
2022-10-09T05:54:51.751Z,33.85
2022-10-09T05:59:54.695Z,34.70
2022-10-09T06:04:59.004Z,35.33
2022-10-09T06:10:01.843Z,34.75
2022-10-09T06:15:05.343Z,34.58
2022-10-09T06:20:10.304Z,34.97
2022-10-09T06:25:13.208Z,35.60
2022-10-09T06:30:16.256Z,36.22
2022-10-09T06:35:20.613Z,35.20
2022-10-09T06:40:29.519Z,35.67
2022-10-09T06:45:36.822Z,36.70
2022-10-09T06:50:41.098Z,35.92
2022-10-09T06:55:52.735Z,36.22
2022-10-09T07:01:06.995Z,35.30
2022-10-09T07:06:14.127Z,36.17
2022-10-09T07:11:20.976Z,35.70
2022-10-09T07:16:25.665Z,35.53
2022-10-09T07:21:30.279Z,36.75
2022-10-09T07:26:34.578Z,36.17
2022-10-09T07:31:37.676Z,36.60
2022-10-09T07:36:41.926Z,37.60
2022-10-09T07:41:44.826Z,36.53
2022-10-09T07:46:50.095Z,36.60
2022-10-09T07:51:54.404Z,37.38
2022-10-09T07:56:59.388Z,37.63
2022-10-09T08:08:30.301Z,37.20
2022-10-09T08:13:33.901Z,37.30
2022-10-09T08:18:37.457Z,36.53
2022-10-09T08:23:42.165Z,37.00
2022-10-09T08:28:45.394Z,36.20
2022-10-09T08:33:48.384Z,36.38
2022-10-09T08:38:53.608Z,37.03
2022-10-09T08:44:03.082Z,36.30
2022-10-09T08:49:06.389Z,36.33
2022-10-09T08:54:20.247Z,36.47
2022-10-09T08:59:23.130Z,36.72
2022-10-09T09:04:38.199Z,36.45
2022-10-09T09:09:51.191Z,36.17
2022-10-09T09:15:09.542Z,36.58
2022-10-09T09:20:17.429Z,36.38
2022-10-09T09:25:25.826Z,35.90
2022-10-09T09:30:36.553Z,36.30
2022-10-09T09:35:47.746Z,37.50
2022-10-09T09:40:52.080Z,36.20
2022-10-09T09:45:57.231Z,36.05
2022-10-09T09:51:26.741Z,36.58
2022-10-09T09:57:07.076Z,36.28
2022-10-09T10:02:05.378Z,35.25
2022-10-09T10:07:08.513Z,35.78
2022-10-09T10:12:17.825Z,36.30
2022-10-09T10:17:33.281Z,35.97
2022-10-09T10:22:37.172Z,36.55
2022-10-09T10:27:43.566Z,36.33
2022-10-09T10:32:53.518Z,35.55
2022-10-09T10:38:02.766Z,35.75
2022-10-09T10:43:16.340Z,36.05
2022-10-09T10:48:25.346Z,35.70
2022-10-09T10:53:40.752Z,35.35
2022-10-09T10:58:52.175Z,35.33
2022-10-09T11:04:18.732Z,36.25
2022-10-09T11:09:29.677Z,35.33
2022-10-09T11:14:42.889Z,36.03
2022-10-09T11:20:00.959Z,35.53
2022-10-09T11:25:30.140Z,35.35
2022-10-09T11:30:42.855Z,36.03
2022-10-09T11:35:49.747Z,37.17
2022-10-09T11:40:53.722Z,36.08
2022-10-09T11:46:02.718Z,35.47
2022-10-09T11:51:12.737Z,35.38
2022-10-09T11:56:32.035Z,35.70
2022-10-09T12:01:38.365Z,35.08
2022-10-09T12:06:48.321Z,36.10
2022-10-09T12:12:01.622Z,36.13
2022-10-09T12:17:17.651Z,36.92
2022-10-09T12:22:24.716Z,35.92
2022-10-09T12:27:29.934Z,35.80
2022-10-09T12:32:39.145Z,36.28
2022-10-09T12:37:43.169Z,35.95
2022-10-09T12:42:46.866Z,36.58
2022-10-09T12:47:53.249Z,36.28
2022-10-09T12:52:59.020Z,37.47
2022-10-09T12:58:04.935Z,36.33
2022-10-09T13:03:23.632Z,37.13
2022-10-09T13:08:30.193Z,36.05
2022-10-09T13:13:33.231Z,36.03
2022-10-09T13:18:38.609Z,36.35
2022-10-09T13:23:43.118Z,36.95
2022-10-09T13:28:46.088Z,36.45
2022-10-09T13:33:50.679Z,37.15
2022-10-09T13:38:53.632Z,37.30
2022-10-09T13:43:56.588Z,36.35
2022-10-09T13:49:00.817Z,36.60
2022-10-09T13:54:03.744Z,36.67
2022-10-09T13:59:06.647Z,35.97
2022-10-09T14:04:10.907Z,36.63
2022-10-09T14:09:13.906Z,37.10
2022-10-09T14:14:16.979Z,36.25
2022-10-09T14:19:26.359Z,36.38
2022-10-09T14:24:29.281Z,36.88
2022-10-09T14:29:32.296Z,36.65
2022-10-09T14:34:36.516Z,37.05
2022-10-09T14:39:39.390Z,37.08
2022-10-09T14:44:42.375Z,37.47
2022-10-09T14:49:46.773Z,36.63
2022-10-09T14:54:49.738Z,36.72
2022-10-09T14:59:52.984Z,36.80
2022-10-09T15:04:57.246Z,36.92
2022-10-09T15:10:07.962Z,36.95
2022-10-09T15:15:11.648Z,36.95
2022-10-09T15:20:15.961Z,36.92
2022-10-09T15:25:18.825Z,37.60
2022-10-09T15:30:23.764Z,37.83
2022-10-09T15:35:28.175Z,36.75
2022-10-09T15:40:31.107Z,36.15
2022-10-09T15:45:35.707Z,36.85
2022-10-09T15:50:40.030Z,36.70
2022-10-09T15:55:45.003Z,37.13
2022-10-09T16:00:51.232Z,36.35
2022-10-09T16:05:56.265Z,36.53
2022-10-09T16:10:59.571Z,36.50
2022-10-09T16:16:06.373Z,36.60
2022-10-09T16:21:13.867Z,36.15
2022-10-09T16:26:20.141Z,36.83
2022-10-09T16:31:24.699Z,37.25
2022-10-09T16:36:29.379Z,36.13
2022-10-09T16:41:37.233Z,36.40
2022-10-09T16:46:44.577Z,36.80
2022-10-09T16:51:48.874Z,37.20
2022-10-09T16:56:52.085Z,36.88
2022-10-09T17:01:57.162Z,37.25
2022-10-09T17:07:01.490Z,38.45
2022-10-09T17:12:04.674Z,38.08
2022-10-09T17:17:10.132Z,36.88
2022-10-09T17:22:14.467Z,37.70
2022-10-09T17:27:17.664Z,38.10
2022-10-09T17:32:20.840Z,41.20
2022-10-09T17:37:25.360Z,38.63
2022-10-09T17:42:32.962Z,37.95
2022-10-09T17:47:40.993Z,37.95
2022-10-09T17:52:46.321Z,38.22
2022-10-09T17:57:49.745Z,37.55
2022-10-09T18:02:55.714Z,37.17
2022-10-09T18:08:02.840Z,37.10
2022-10-09T18:13:10.074Z,36.40
2022-10-09T18:18:13.867Z,36.35
2022-10-09T18:23:22.532Z,36.95
2022-10-09T18:33:33.969Z,36.58
2022-10-09T18:38:38.230Z,37.35
2022-10-09T18:43:41.149Z,36.85
2022-10-09T18:48:44.490Z,37.97
2022-10-09T18:53:52.869Z,36.40
2022-10-09T18:58:55.905Z,36.50
2022-10-09T19:03:59.843Z,37.10
2022-10-09T19:09:05.095Z,37.88
2022-10-09T19:14:08.019Z,37.70
2022-10-09T19:19:11.255Z,38.83
2022-10-09T19:24:15.511Z,37.45
2022-10-09T19:29:18.493Z,38.05
2022-10-09T19:34:21.346Z,38.05
2022-10-09T19:39:25.910Z,36.13
2022-10-09T19:44:28.941Z,38.10
2022-10-09T19:49:32.920Z,35.92
2022-10-09T19:54:37.787Z,36.20
2022-10-09T19:59:40.657Z,36.15
2022-10-09T20:04:43.569Z,35.42
2022-10-09T20:09:47.802Z,36.25
2022-10-09T20:14:50.875Z,35.97
2022-10-09T20:19:53.741Z,36.65
2022-10-09T20:24:58.021Z,36.03
2022-10-09T20:30:00.947Z,35.92
2022-10-09T20:35:03.857Z,35.17
2022-10-09T20:40:08.856Z,36.78
2022-10-09T20:45:11.789Z,35.90
2022-10-09T20:50:14.653Z,36.58
2022-10-09T20:55:19.024Z,36.17
2022-10-09T21:00:21.891Z,36.55
2022-10-09T21:05:24.855Z,35.58
2022-10-09T21:10:29.099Z,35.70
2022-10-09T21:15:31.953Z,35.55
2022-10-09T21:20:37.899Z,35.42
2022-10-09T21:25:48.025Z,35.72
2022-10-09T21:30:51.066Z,35.20
2022-10-09T21:35:55.336Z,35.58
2022-10-09T21:40:59.607Z,35.42
2022-10-09T21:46:02.541Z,35.75
2022-10-09T21:51:05.587Z,35.03
2022-10-09T21:56:10.698Z,35.10
2022-10-09T22:01:14.048Z,35.72
2022-10-09T22:06:19.476Z,35.60
2022-10-09T22:11:24.375Z,34.90
2022-10-09T22:16:27.313Z,35.33
2022-10-09T22:21:30.243Z,35.60
2022-10-09T22:26:35.853Z,35.50
2022-10-09T22:31:38.783Z,35.88
2022-10-09T22:36:41.767Z,35.45
2022-10-09T22:41:46.207Z,35.05
2022-10-09T22:46:51.090Z,35.63
2022-10-09T22:51:53.966Z,35.67
2022-10-09T22:56:58.179Z,36.80
2022-10-09T23:02:01.214Z,36.20
2022-10-09T23:07:04.319Z,36.05
2022-10-09T23:12:08.509Z,35.92
2022-10-09T23:17:11.401Z,36.08
2022-10-09T23:22:14.249Z,35.00
2022-10-09T23:27:18.471Z,36.38
2022-10-09T23:32:21.384Z,35.88
2022-10-09T23:37:24.340Z,35.42
2022-10-09T23:42:28.577Z,36.10
2022-10-09T23:47:31.439Z,35.88
2022-10-09T23:52:34.691Z,35.88
2022-10-09T23:57:38.946Z,35.25
